Flight Track Log - Related Links

Times and Time Zones

All times are in EDT time to prevent confusion due to time zone crossing. See the UAL3740 flight status page for this flight to view local times or setup timezone preferences in your user account.

Time Position Orientation Groundspeed Altitude Reporting Facility
EDT Latitude Longitude Course Direction KTS MPH feet Rate Location/Type
Wed 10:13:22 AM 41.7956 -71.4322 351° North 210 242 3,800  Level Boston Center
Wed 10:14:23 AM 41.8336 -71.4872 313° West 218 251 6,000 2,826 Climbing Boston Center
Wed 10:15:23 AM 41.8636 -71.5703 296° West 223 257 9,500 2,678 Climbing Boston Center
Wed 10:16:24 AM 41.8911 -71.6564 293° West 246 283 11,400 1,884 Climbing Boston Center
Wed 10:17:24 AM 41.9211 -71.7453 294° West 278 320 13,300 2,186 Climbing Boston Center
Wed 10:18:22 AM 41.9592 -71.8594 294° West 299 344 15,700 2,168 Climbing Boston Center
Wed 10:19:23 AM 41.9867 -71.9736 288° West 316 364 17,600 1,736 Climbing Boston Center
Wed 10:20:23 AM 42.0144 -72.0936 287° West 328 377 19,200 1,636 Climbing Boston Center
Wed 10:21:24 AM 42.0439 -72.2136 288° West 340 391 20,900 1,636 Climbing Boston Center
Wed 10:22:24 AM 42.0731 -72.3422 287° West 352 405 22,500 1,627 Climbing Boston Center
Wed 10:23:22 AM 42.1044 -72.4708 288° West 352 405 24,100 1,475 Climbing Boston Center
Wed 10:24:22 AM 42.1356 -72.6025 288° West 362 417 25,400 1,180 Climbing Boston Center
Wed 10:25:24 AM 42.1458 -72.7425 276° West 368 423 26,500 1,033 Climbing Boston Center
Wed 10:26:24 AM 42.0786 -72.8597 232° Southwest 362 417 27,500 763 Climbing Boston Center
Wed 10:27:22 AM 42.0136 -72.9767 233° Southwest 365 420 28,000 403 Climbing Boston Center
Wed 10:28:23 AM 41.9358 -73.1014 230° Southwest 414 476 28,300 689 Climbing Boston Center
Wed 10:29:24 AM 41.8558 -73.2206 228° Southwest 425 489 29,400 850 Climbing Boston Center
Wed 10:30:23 AM 41.7778 -73.3392 229° Southwest 430 495 30,000 196 Climbing Boston Center
Wed 10:32:28 AM 41.6136 -73.5736 227° Southwest 435 501 30,000  Level New York Center
Wed 10:33:28 AM 41.5336 -73.6922 228° Southwest 435 501 30,000  Level New York Center
Wed 10:34:30 AM 41.4536 -73.8103 228° Southwest 435 501 30,000  Level New York Center
Wed 10:35:27 AM 41.3714 -73.9311 228° Southwest 441 507 30,000  Level New York Center
Wed 10:36:28 AM 41.2781 -74.0675 228° Southwest 441 507 30,000  Level New York Center
Wed 10:37:28 AM 41.1956 -74.1847 227° Southwest 448 516 30,000  Level New York Center
Wed 10:38:29 AM 41.1089 -74.2986 225° Southwest 448 516 30,000 -450 Level New York Center
Wed 10:39:28 AM 41.0281 -74.4211 229° Southwest 443 510 29,100 -958 Descending New York Center
Wed 10:40:28 AM 40.9433 -74.5344 225° Southwest 443 510 28,100 -550 Descending New York Center
Wed 10:41:28 AM 40.8811 -74.6572 236° Southwest 431 496 28,000 -98 Descending New York Center
Wed 10:42:30 AM 40.8411 -74.7922 249° West 403 464 27,900 -787 Descending New York Center
Wed 10:43:30 AM 40.8033 -74.9189 249° West 393 452 26,400 -1,513 Descending New York Center
Wed 10:44:29 AM 40.7633 -75.0478 248° West 388 447 24,900 -1,500 Descending New York Center
Wed 10:45:30 AM 40.7253 -75.1742 248° West 382 440 23,400 -1,513 Descending New York Center
Wed 10:46:28 AM 40.6981 -75.2875 252° West 377 434 21,900 -1,513 Descending New York Center
Wed 10:47:29 AM 40.6850 -75.4125 262° West 365 420 20,400 -942 Descending New York Center
Wed 10:48:29 AM 40.6761 -75.5322 264° West 349 402 20,000 -202 Descending New York Center
Wed 10:49:28 AM 40.6342 -75.6386 243° Southwest 343 395 20,000  Level New York Center
Wed 10:50:28 AM 40.5658 -75.7267 224° Southwest 328 377 20,000  Level New York Center
Wed 10:51:29 AM 40.4975 -75.8175 225° Southwest 340 391 20,000  Level New York Center
Wed 10:52:29 AM 40.4203 -75.9125 223° Southwest 363 418 20,000  Level New York Center
Wed 10:53:30 AM 40.3433 -76.0050 223° Southwest 373 429 20,000  Level New York Center
Wed 10:54:30 AM 40.2725 -76.1003 226° Southwest 373 429 20,000  Level New York Center
Wed 10:55:27 AM 40.1994 -76.1925 224° Southwest 373 429 20,000  Level New York Center
Wed 10:56:29 AM 40.1525 -76.3031 241° Southwest 361 415 20,000 -683 Level New York Center
Wed 10:57:30 AM 40.1081 -76.4081 241° Southwest 340 391 18,600 -1,563 Descending New York Center
Wed 10:58:28 AM 40.0611 -76.5181 241° Southwest 326 375 16,900 -1,125 Descending New York Center
Wed 11:00:42 AM 40.0000 -76.7500 251° West 326 375 15,000 -588 Descending Potomac TRACON
Wed 11:01:42 AM 39.9500 -76.8333 232° Southwest 318 366 15,000  Level Potomac TRACON
Wed 11:02:42 AM 39.8833 -76.9333 229° Southwest 317 365 15,000 -368 Level Potomac TRACON
Wed 11:03:36 AM 39.8333 -77.0000 226° Southwest 321 369 14,300 -1,158 Descending Potomac TRACON
Wed 11:04:36 AM 39.7667 -77.1000 229° Southwest 315 362 12,800 -1,190 Descending Potomac TRACON
Wed 11:05:42 AM 39.7167 -77.1833 232° Southwest 273 314 11,800 -1,181 Descending Potomac TRACON
Wed 11:06:43 AM 39.6667 -77.2500 226° Southwest 260 299 10,300 -939 Descending Potomac TRACON
Wed 11:07:37 AM 39.6333 -77.3167 237° Southwest 270 311 10,000 -574 Descending Potomac TRACON
Wed 11:08:38 AM 39.5667 -77.3500 201° Southwest 288 331 9,200 -992 Descending Potomac TRACON
Wed 11:09:38 AM 39.4833 -77.3833 197° South 285 328 8,000 -1,105 Descending Potomac TRACON
Wed 11:10:32 AM 39.4167 -77.4000 191° South 280 322 7,100 -1,000 Descending Potomac TRACON
Wed 11:11:32 AM 39.3333 -77.4167 189° South 268 308 6,100 -900 Descending Potomac TRACON
Wed 11:12:32 AM 39.2667 -77.4500 201° Southwest 277 319 5,300 -1,050 Descending Potomac TRACON
Wed 11:13:32 AM 39.1833 -77.4500 180° South 271 312 4,000 -900 Descending Potomac TRACON
Wed 11:14:32 AM 39.1167 -77.4500 180° South 239 275 3,500 -850 Descending Potomac TRACON
Wed 11:15:32 AM 39.0667 -77.4500 180° South 196 226 2,300 -1,100 Descending Potomac TRACON
Wed 11:16:32 AM 39.0167 -77.4667 195° South 149 171 1,300 -900 Descending Potomac TRACON
Wed 11:17:32 AM 38.9833 -77.4667 180° South 142 163 500 -800 Descending Potomac TRACON
Wed 11:19:00 AM 38.9474 -77.4599 180° South  Level Estimated
Wed 11:26:00 AM 38.9474 -77.4599 349° North  Level Estimated

Login

Don't have an account? Register now (free) for customized features, flight alerts, and more!